sensor_id;sensor_type;location;lat;lon;timestamp;pressure;altitude;pressure_sealevel;temperature;humidity
61488;BME280;47351;53.326;-6.298;2023-04-21T00:01:09;101844.65;;;8.94;58.64
61488;BME280;47351;53.326;-6.298;2023-04-21T00:04:18;101841.56;;;8.93;58.92
61488;BME280;47351;53.326;-6.298;2023-04-21T00:07:34;101842.94;;;8.91;59.29
61488;BME280;47351;53.326;-6.298;2023-04-21T00:10:45;101847.38;;;8.89;59.67
61488;BME280;47351;53.326;-6.298;2023-04-21T00:13:57;101854.66;;;8.87;59.97
61488;BME280;47351;53.326;-6.298;2023-04-21T00:17:07;101853.71;;;8.85;59.97
61488;BME280;47351;53.326;-6.298;2023-04-21T00:20:12;101849.92;;;8.84;59.60
61488;BME280;47351;53.326;-6.298;2023-04-21T00:23:17;101855.94;;;8.81;58.92
61488;BME280;47351;53.326;-6.298;2023-04-21T00:26:08;101853.86;;;8.81;58.45
61488;BME280;47351;53.326;-6.298;2023-04-21T00:29:19;101851.75;;;8.80;58.13
61488;BME280;47351;53.326;-6.298;2023-04-21T00:32:30;101851.57;;;8.80;57.59
61488;BME280;47351;53.326;-6.298;2023-04-21T00:35:31;101853.80;;;8.79;57.50
61488;BME280;47351;53.326;-6.298;2023-04-21T00:38:42;101853.64;;;8.77;57.56
61488;BME280;47351;53.326;-6.298;2023-04-21T00:41:53;101855.43;;;8.74;57.77
61488;BME280;47351;53.326;-6.298;2023-04-21T00:45:06;101853.02;;;8.71;57.95
61488;BME280;47351;53.326;-6.298;2023-04-21T00:52:17;101843.61;;;8.68;58.53
61488;BME280;47351;53.326;-6.298;2023-04-21T00:55:42;101842.04;;;8.68;58.60
61488;BME280;47351;53.326;-6.298;2023-04-21T00:58:54;101847.71;;;8.68;58.65
61488;BME280;47351;53.326;-6.298;2023-04-21T01:03:22;101842.79;;;8.68;58.92
61488;BME280;47351;53.326;-6.298;2023-04-21T01:06:55;101843.91;;;8.67;59.27
61488;BME280;47351;53.326;-6.298;2023-04-21T01:10:52;101842.34;;;8.66;59.59
61488;BME280;47351;53.326;-6.298;2023-04-21T01:14:50;101833.45;;;8.66;59.92
61488;BME280;47351;53.326;-6.298;2023-04-21T01:18:03;101830.29;;;8.66;60.25
61488;BME280;47351;53.326;-6.298;2023-04-21T01:20:54;101827.46;;;8.66;60.61
61488;BME280;47351;53.326;-6.298;2023-04-21T01:24:12;101820.42;;;8.65;61.38
61488;BME280;47351;53.326;-6.298;2023-04-21T01:28:23;101811.05;;;8.64;61.64
61488;BME280;47351;53.326;-6.298;2023-04-21T01:31:34;101804.60;;;8.62;62.10
61488;BME280;47351;53.326;-6.298;2023-04-21T01:34:13;101798.55;;;8.60;62.52
61488;BME280;47351;53.326;-6.298;2023-04-21T01:37:25;101782.70;;;8.57;62.61
61488;BME280;47351;53.326;-6.298;2023-04-21T01:40:27;101773.72;;;8.54;63.12
61488;BME280;47351;53.326;-6.298;2023-04-21T01:43:38;101773.13;;;8.50;63.37
61488;BME280;47351;53.326;-6.298;2023-04-21T01:46:37;101764.55;;;8.46;63.47
61488;BME280;47351;53.326;-6.298;2023-04-21T01:49:48;101762.31;;;8.43;63.79
61488;BME280;47351;53.326;-6.298;2023-04-21T01:52:59;101766.14;;;8.39;63.96
61488;BME280;47351;53.326;-6.298;2023-04-21T01:56:13;101777.23;;;8.36;64.35
61488;BME280;47351;53.326;-6.298;2023-04-21T01:59:24;101771.80;;;8.32;64.69
61488;BME280;47351;53.326;-6.298;2023-04-21T02:02:35;101777.30;;;8.30;65.14
61488;BME280;47351;53.326;-6.298;2023-04-21T02:05:47;101785.71;;;8.29;65.37
61488;BME280;47351;53.326;-6.298;2023-04-21T02:08:59;101786.09;;;8.29;65.72
61488;BME280;47351;53.326;-6.298;2023-04-21T02:12:10;101777.33;;;8.30;65.98
61488;BME280;47351;53.326;-6.298;2023-04-21T02:15:21;101764.73;;;8.30;66.48
61488;BME280;47351;53.326;-6.298;2023-04-21T02:18:32;101759.20;;;8.30;66.71
61488;BME280;47351;53.326;-6.298;2023-04-21T02:21:48;101759.23;;;8.29;66.70
61488;BME280;47351;53.326;-6.298;2023-04-21T02:24:50;101762.99;;;8.29;67.03
61488;BME280;47351;53.326;-6.298;2023-04-21T02:28:01;101763.80;;;8.28;67.15
61488;BME280;47351;53.326;-6.298;2023-04-21T02:31:09;101768.85;;;8.27;67.34
61488;BME280;47351;53.326;-6.298;2023-04-21T02:34:22;101757.90;;;8.26;67.27
61488;BME280;47351;53.326;-6.298;2023-04-21T02:37:33;101744.13;;;8.25;67.58
61488;BME280;47351;53.326;-6.298;2023-04-21T02:40:27;101735.27;;;8.22;68.02
61488;BME280;47351;53.326;-6.298;2023-04-21T02:43:38;101731.74;;;8.19;68.28
61488;BME280;47351;53.326;-6.298;2023-04-21T02:46:49;101734.23;;;8.17;68.57
61488;BME280;47351;53.326;-6.298;2023-04-21T02:49:43;101728.40;;;8.16;68.96
61488;BME280;47351;53.326;-6.298;2023-04-21T02:52:54;101727.81;;;8.17;69.31
61488;BME280;47351;53.326;-6.298;2023-04-21T02:56:05;101728.42;;;8.18;69.46
61488;BME280;47351;53.326;-6.298;2023-04-21T02:59:08;101728.43;;;8.20;69.33
61488;BME280;47351;53.326;-6.298;2023-04-21T03:02:13;101730.23;;;8.22;69.57
61488;BME280;47351;53.326;-6.298;2023-04-21T03:05:24;101735.34;;;8.25;69.52
61488;BME280;47351;53.326;-6.298;2023-04-21T03:08:35;101735.50;;;8.28;69.52
61488;BME280;47351;53.326;-6.298;2023-04-21T03:11:46;101714.50;;;8.30;69.75
61488;BME280;47351;53.326;-6.298;2023-04-21T03:14:57;101716.59;;;8.31;69.65
61488;BME280;47351;53.326;-6.298;2023-04-21T03:18:09;101707.02;;;8.31;69.62
61488;BME280;47351;53.326;-6.298;2023-04-21T03:21:21;101711.44;;;8.28;69.68
61488;BME280;47351;53.326;-6.298;2023-04-21T03:24:52;101714.52;;;8.25;69.57
61488;BME280;47351;53.326;-6.298;2023-04-21T03:28:03;101727.41;;;8.22;69.62
61488;BME280;47351;53.326;-6.298;2023-04-21T03:31:17;101732.30;;;8.19;69.66
61488;BME280;47351;53.326;-6.298;2023-04-21T03:34:28;101724.64;;;8.17;69.70
61488;BME280;47351;53.326;-6.298;2023-04-21T03:37:39;101712.23;;;8.16;69.62
61488;BME280;47351;53.326;-6.298;2023-04-21T03:40:36;101705.83;;;8.16;69.50
61488;BME280;47351;53.326;-6.298;2023-04-21T03:43:51;101698.55;;;8.16;69.64
61488;BME280;47351;53.326;-6.298;2023-04-21T03:47:42;101687.70;;;8.16;69.51
61488;BME280;47351;53.326;-6.298;2023-04-21T03:54:48;101675.31;;;8.15;69.35
61488;BME280;47351;53.326;-6.298;2023-04-21T03:58:08;101679.95;;;8.15;69.52
61488;BME280;47351;53.326;-6.298;2023-04-21T04:01:23;101674.20;;;8.16;69.58
61488;BME280;47351;53.326;-6.298;2023-04-21T04:04:17;101666.80;;;8.15;69.61
61488;BME280;47351;53.326;-6.298;2023-04-21T04:07:29;101658.70;;;8.11;69.74
61488;BME280;47351;53.326;-6.298;2023-04-21T04:10:33;101652.36;;;8.08;70.11
61488;BME280;47351;53.326;-6.298;2023-04-21T04:14:01;101648.55;;;8.09;70.61
61488;BME280;47351;53.326;-6.298;2023-04-21T04:17:36;101655.21;;;8.13;71.26
61488;BME280;47351;53.326;-6.298;2023-04-21T04:20:50;101658.70;;;8.19;71.58
61488;BME280;47351;53.326;-6.298;2023-04-21T04:23:56;101654.42;;;8.23;71.66
61488;BME280;47351;53.326;-6.298;2023-04-21T04:27:16;101655.75;;;8.24;71.69
61488;BME280;47351;53.326;-6.298;2023-04-21T04:31:22;101662.59;;;8.26;71.78
61488;BME280;47351;53.326;-6.298;2023-04-21T04:35:14;101655.93;;;8.27;71.80
61488;BME280;47351;53.326;-6.298;2023-04-21T04:39:42;101657.32;;;8.29;71.72
61488;BME280;47351;53.326;-6.298;2023-04-21T04:42:37;101652.34;;;8.31;71.83
61488;BME280;47351;53.326;-6.298;2023-04-21T04:46:46;101648.73;;;8.34;71.75
61488;BME280;47351;53.326;-6.298;2023-04-21T04:50:03;101651.72;;;8.38;71.69
61488;BME280;47351;53.326;-6.298;2023-04-21T04:57:51;101633.46;;;8.48;71.54
61488;BME280;47351;53.326;-6.298;2023-04-21T05:01:41;101635.59;;;8.50;71.30
61488;BME280;47351;53.326;-6.298;2023-04-21T05:04:51;101628.60;;;8.51;71.16
61488;BME280;47351;53.326;-6.298;2023-04-21T05:08:02;101639.74;;;8.52;71.10
61488;BME280;47351;53.326;-6.298;2023-04-21T05:11:13;101636.15;;;8.52;71.05
61488;BME280;47351;53.326;-6.298;2023-04-21T05:14:23;101644.61;;;8.53;71.05
61488;BME280;47351;53.326;-6.298;2023-04-21T05:17:34;101636.07;;;8.53;71.15
61488;BME280;47351;53.326;-6.298;2023-04-21T05:20:45;101630.02;;;8.53;71.20
61488;BME280;47351;53.326;-6.298;2023-04-21T05:23:55;101627.48;;;8.54;71.18
61488;BME280;47351;53.326;-6.298;2023-04-21T05:27:05;101621.18;;;8.55;71.27
61488;BME280;47351;53.326;-6.298;2023-04-21T05:30:17;101610.79;;;8.56;71.30
61488;BME280;47351;53.326;-6.298;2023-04-21T05:33:28;101612.77;;;8.55;71.43
61488;BME280;47351;53.326;-6.298;2023-04-21T05:36:41;101602.84;;;8.55;71.63
61488;BME280;47351;53.326;-6.298;2023-04-21T05:39:52;101605.79;;;8.53;71.83
61488;BME280;47351;53.326;-6.298;2023-04-21T05:43:03;101599.34;;;8.52;72.03
61488;BME280;47351;53.326;-6.298;2023-04-21T05:46:12;101593.92;;;8.51;72.23
61488;BME280;47351;53.326;-6.298;2023-04-21T05:49:24;101588.29;;;8.48;72.49
61488;BME280;47351;53.326;-6.298;2023-04-21T05:52:35;101592.28;;;8.45;72.74
61488;BME280;47351;53.326;-6.298;2023-04-21T05:55:46;101596.30;;;8.41;72.92
61488;BME280;47351;53.326;-6.298;2023-04-21T05:58:51;101600.23;;;8.39;73.09
61488;BME280;47351;53.326;-6.298;2023-04-21T06:01:45;101607.40;;;8.38;73.34
61488;BME280;47351;53.326;-6.298;2023-04-21T06:04:56;101599.86;;;8.36;73.51
61488;BME280;47351;53.326;-6.298;2023-04-21T06:08:08;101598.04;;;8.34;74.23
61488;BME280;47351;53.326;-6.298;2023-04-21T06:11:19;101602.48;;;8.34;74.47
61488;BME280;47351;53.326;-6.298;2023-04-21T06:14:30;101612.67;;;8.39;74.77
61488;BME280;47351;53.326;-6.298;2023-04-21T06:17:42;101616.17;;;8.44;75.13
61488;BME280;47351;53.326;-6.298;2023-04-21T06:20:52;101612.20;;;8.51;75.15
61488;BME280;47351;53.326;-6.298;2023-04-21T06:23:53;101601.73;;;8.60;75.12
61488;BME280;47351;53.326;-6.298;2023-04-21T06:27:04;101597.73;;;8.70;75.06
61488;BME280;47351;53.326;-6.298;2023-04-21T06:30:27;101587.30;;;8.82;74.88
61488;BME280;47351;53.326;-6.298;2023-04-21T06:33:21;101582.95;;;8.92;74.49
61488;BME280;47351;53.326;-6.298;2023-04-21T06:36:15;101573.44;;;9.06;74.25
61488;BME280;47351;53.326;-6.298;2023-04-21T06:39:27;101561.42;;;9.21;73.96
61488;BME280;47351;53.326;-6.298;2023-04-21T06:42:38;101562.41;;;9.33;73.47
61488;BME280;47351;53.326;-6.298;2023-04-21T06:45:49;101559.13;;;9.42;73.25
61488;BME280;47351;53.326;-6.298;2023-04-21T06:48:49;101555.36;;;9.49;72.93
61488;BME280;47351;53.326;-6.298;2023-04-21T06:55:15;101548.48;;;9.56;72.43
61488;BME280;47351;53.326;-6.298;2023-04-21T06:58:26;101549.13;;;9.72;72.19
61488;BME280;47351;53.326;-6.298;2023-04-21T07:01:17;101536.15;;;9.86;71.54
61488;BME280;47351;53.326;-6.298;2023-04-21T07:04:29;101531.48;;;9.92;71.11
61488;BME280;47351;53.326;-6.298;2023-04-21T07:07:28;101526.52;;;9.94;70.93
61488;BME280;47351;53.326;-6.298;2023-04-21T07:10:26;101531.11;;;9.94;70.70
61488;BME280;47351;53.326;-6.298;2023-04-21T07:13:18;101538.91;;;9.97;70.67
61488;BME280;47351;53.326;-6.298;2023-04-21T07:16:29;101535.63;;;10.02;70.63
61488;BME280;47351;53.326;-6.298;2023-04-21T07:19:34;101530.98;;;10.08;70.54
61488;BME280;47351;53.326;-6.298;2023-04-21T07:22:28;101531.20;;;10.20;70.49
61488;BME280;47351;53.326;-6.298;2023-04-21T07:25:32;101528.40;;;10.34;70.28
61488;BME280;47351;53.326;-6.298;2023-04-21T07:28:36;101515.48;;;10.40;69.99
61488;BME280;47351;53.326;-6.298;2023-04-21T07:31:35;101513.49;;;10.47;69.81
61488;BME280;47351;53.326;-6.298;2023-04-21T07:34:37;101501.91;;;10.57;69.60
61488;BME280;47351;53.326;-6.298;2023-04-21T07:37:48;101497.27;;;10.62;69.46
61488;BME280;47351;53.326;-6.298;2023-04-21T07:40:59;101499.18;;;10.63;69.29
61488;BME280;47351;53.326;-6.298;2023-04-21T07:43:53;101497.67;;;10.66;69.14
61488;BME280;47351;53.326;-6.298;2023-04-21T07:47:04;101493.35;;;10.70;69.22
61488;BME280;47351;53.326;-6.298;2023-04-21T07:50:16;101490.77;;;10.73;68.92
61488;BME280;47351;53.326;-6.298;2023-04-21T07:53:27;101489.52;;;10.87;68.61
61488;BME280;47351;53.326;-6.298;2023-04-21T07:56:20;101479.89;;;11.10;68.13
61488;BME280;47351;53.326;-6.298;2023-04-21T07:59:23;101467.92;;;11.53;67.73
61488;BME280;47351;53.326;-6.298;2023-04-21T08:02:13;101455.16;;;12.57;66.73
61488;BME280;47351;53.326;-6.298;2023-04-21T08:05:05;101457.02;;;13.53;64.26
61488;BME280;47351;53.326;-6.298;2023-04-21T08:07:56;101459.38;;;14.58;62.03
61488;BME280;47351;53.326;-6.298;2023-04-21T08:10:47;101471.64;;;15.69;60.22
61488;BME280;47351;53.326;-6.298;2023-04-21T08:13:40;101480.64;;;15.85;59.22
61488;BME280;47351;53.326;-6.298;2023-04-21T08:16:37;101484.14;;;15.36;58.28
61488;BME280;47351;53.326;-6.298;2023-04-21T08:19:28;101481.45;;;14.85;58.09
61488;BME280;47351;53.326;-6.298;2023-04-21T08:22:22;101476.27;;;14.58;58.66
61488;BME280;47351;53.326;-6.298;2023-04-21T08:25:13;101469.98;;;15.39;58.28
61488;BME280;47351;53.326;-6.298;2023-04-21T08:28:05;101455.86;;;16.53;56.61
61488;BME280;47351;53.326;-6.298;2023-04-21T08:30:56;101453.34;;;17.27;55.53
61488;BME280;47351;53.326;-6.298;2023-04-21T08:33:48;101445.23;;;18.13;53.35
61488;BME280;47351;53.326;-6.298;2023-04-21T08:36:50;101438.72;;;19.18;51.41
61488;BME280;47351;53.326;-6.298;2023-04-21T08:39:42;101431.05;;;20.13;49.86
61488;BME280;47351;53.326;-6.298;2023-04-21T08:42:32;101419.67;;;20.87;47.63
61488;BME280;47351;53.326;-6.298;2023-04-21T08:45:25;101422.52;;;21.58;46.99
61488;BME280;47351;53.326;-6.298;2023-04-21T08:48:22;101417.20;;;22.39;46.08
61488;BME280;47351;53.326;-6.298;2023-04-21T08:51:20;101410.69;;;22.03;45.49
61488;BME280;47351;53.326;-6.298;2023-04-21T08:54:11;101411.20;;;20.66;45.63
61488;BME280;47351;53.326;-6.298;2023-04-21T08:57:02;101406.08;;;19.21;46.02
61488;BME280;47351;53.326;-6.298;2023-04-21T09:00:08;101389.32;;;18.03;47.73
61488;BME280;47351;53.326;-6.298;2023-04-21T09:02:59;101402.23;;;17.09;48.52
61488;BME280;47351;53.326;-6.298;2023-04-21T09:05:58;101407.83;;;16.18;49.24
61488;BME280;47351;53.326;-6.298;2023-04-21T09:08:53;101407.17;;;15.50;50.39
61488;BME280;47351;53.326;-6.298;2023-04-21T09:11:44;101403.09;;;14.92;50.95
61488;BME280;47351;53.326;-6.298;2023-04-21T09:14:45;101405.03;;;14.36;51.88
61488;BME280;47351;53.326;-6.298;2023-04-21T09:17:39;101405.41;;;13.92;52.89
61488;BME280;47351;53.326;-6.298;2023-04-21T09:20:42;101404.48;;;13.59;53.97
61488;BME280;47351;53.326;-6.298;2023-04-21T09:23:44;101402.48;;;13.35;54.98
61488;BME280;47351;53.326;-6.298;2023-04-21T09:26:36;101396.11;;;13.25;55.72
61488;BME280;47351;53.326;-6.298;2023-04-21T09:29:28;101390.29;;;13.21;56.25
61488;BME280;47351;53.326;-6.298;2023-04-21T09:32:19;101381.77;;;13.18;56.61
61488;BME280;47351;53.326;-6.298;2023-04-21T09:35:15;101376.39;;;13.22;57.09
61488;BME280;47351;53.326;-6.298;2023-04-21T09:38:27;101374.55;;;13.26;57.14
61488;BME280;47351;53.326;-6.298;2023-04-21T09:41:22;101377.05;;;13.28;57.07
61488;BME280;47351;53.326;-6.298;2023-04-21T09:44:14;101371.39;;;13.37;57.00
61488;BME280;47351;53.326;-6.298;2023-04-21T09:47:15;101363.77;;;13.84;56.34
61488;BME280;47351;53.326;-6.298;2023-04-21T09:50:18;101360.69;;;14.43;55.70
61488;BME280;47351;53.326;-6.298;2023-04-21T09:53:43;101359.85;;;15.23;54.43
61488;BME280;47351;53.326;-6.298;2023-04-21T09:56:38;101363.67;;;15.37;53.77
61488;BME280;47351;53.326;-6.298;2023-04-21T09:59:31;101366.70;;;15.26;53.95
61488;BME280;47351;53.326;-6.298;2023-04-21T10:02:25;101360.71;;;15.04;53.77
61488;BME280;47351;53.326;-6.298;2023-04-21T10:05:27;101360.83;;;14.73;54.32
61488;BME280;47351;53.326;-6.298;2023-04-21T10:08:26;101356.11;;;14.58;54.63
61488;BME280;47351;53.326;-6.298;2023-04-21T10:11:28;101345.98;;;14.62;54.74
61488;BME280;47351;53.326;-6.298;2023-04-21T10:14:37;101336.23;;;14.63;55.03
61488;BME280;47351;53.326;-6.298;2023-04-21T10:17:28;101336.03;;;14.68;54.90
61488;BME280;47351;53.326;-6.298;2023-04-21T10:20:25;101334.77;;;14.71;54.62
61488;BME280;47351;53.326;-6.298;2023-04-21T10:23:29;101337.77;;;14.68;54.47
61488;BME280;47351;53.326;-6.298;2023-04-21T10:26:20;101334.02;;;14.55;54.63
61488;BME280;47351;53.326;-6.298;2023-04-21T10:29:15;101334.16;;;14.41;55.06
61488;BME280;47351;53.326;-6.298;2023-04-21T10:32:40;101329.08;;;14.13;55.45
61488;BME280;47351;53.326;-6.298;2023-04-21T10:38:37;101312.67;;;14.74;55.61
61488;BME280;47351;53.326;-6.298;2023-04-21T10:41:29;101301.39;;;15.41;54.83
61488;BME280;47351;53.326;-6.298;2023-04-21T10:44:21;101295.70;;;16.33;53.01
61488;BME280;47351;53.326;-6.298;2023-04-21T10:47:12;101286.98;;;17.18;51.58
61488;BME280;47351;53.326;-6.298;2023-04-21T10:50:12;101283.19;;;18.14;50.59
61488;BME280;47351;53.326;-6.298;2023-04-21T10:53:14;101269.56;;;19.88;48.33
61488;BME280;47351;53.326;-6.298;2023-04-21T10:56:06;101258.67;;;22.63;44.80
61488;BME280;47351;53.326;-6.298;2023-04-21T10:58:57;101242.45;;;24.69;40.98
61488;BME280;47351;53.326;-6.298;2023-04-21T11:01:49;101240.27;;;26.09;38.13
61488;BME280;47351;53.326;-6.298;2023-04-21T11:04:41;101247.61;;;27.23;36.60
61488;BME280;47351;53.326;-6.298;2023-04-21T11:07:37;101241.13;;;28.16;33.87
61488;BME280;47351;53.326;-6.298;2023-04-21T11:10:28;101233.67;;;28.71;32.04
61488;BME280;47351;53.326;-6.298;2023-04-21T11:13:20;101232.34;;;29.10;31.38
61488;BME280;47351;53.326;-6.298;2023-04-21T11:16:11;101231.65;;;29.47;30.05
61488;BME280;47351;53.326;-6.298;2023-04-21T11:19:15;101227.77;;;29.91;29.90
61488;BME280;47351;53.326;-6.298;2023-04-21T11:22:25;101227.27;;;30.51;28.02
61488;BME280;47351;53.326;-6.298;2023-04-21T11:25:19;101222.67;;;30.61;26.79
61488;BME280;47351;53.326;-6.298;2023-04-21T11:28:10;101214.02;;;30.03;26.68
61488;BME280;47351;53.326;-6.298;2023-04-21T11:31:02;101216.90;;;28.16;28.43
61488;BME280;47351;53.326;-6.298;2023-04-21T11:33:53;101212.38;;;27.30;29.70
61488;BME280;47351;53.326;-6.298;2023-04-21T11:36:45;101197.28;;;27.02;29.65
61488;BME280;47351;53.326;-6.298;2023-04-21T11:39:40;101194.33;;;27.36;29.43
61488;BME280;47351;53.326;-6.298;2023-04-21T11:42:32;101190.02;;;28.05;29.36
61488;BME280;47351;53.326;-6.298;2023-04-21T11:45:23;101182.64;;;27.65;29.55
61488;BME280;47351;53.326;-6.298;2023-04-21T11:48:18;101187.53;;;26.43;30.84
61488;BME280;47351;53.326;-6.298;2023-04-21T11:51:14;101184.89;;;25.28;31.51
61488;BME280;47351;53.326;-6.298;2023-04-21T11:54:24;101181.13;;;24.36;32.30
61488;BME280;47351;53.326;-6.298;2023-04-21T11:58:16;101170.84;;;25.42;31.67
61488;BME280;47351;53.326;-6.298;2023-04-21T12:01:15;101162.21;;;27.14;30.28
61488;BME280;47351;53.326;-6.298;2023-04-21T12:04:14;101151.88;;;28.00;29.35
61488;BME280;47351;53.326;-6.298;2023-04-21T12:07:05;101142.69;;;29.23;28.49
61488;BME280;47351;53.326;-6.298;2023-04-21T12:09:57;101131.54;;;29.61;28.53
61488;BME280;47351;53.326;-6.298;2023-04-21T12:12:48;101127.88;;;29.46;27.50
61488;BME280;47351;53.326;-6.298;2023-04-21T12:15:39;101124.36;;;29.54;26.77
61488;BME280;47351;53.326;-6.298;2023-04-21T12:18:34;101108.17;;;29.20;26.29
61488;BME280;47351;53.326;-6.298;2023-04-21T12:21:31;101106.48;;;28.37;26.98
61488;BME280;47351;53.326;-6.298;2023-04-21T12:24:22;101111.40;;;26.84;28.13
61488;BME280;47351;53.326;-6.298;2023-04-21T12:27:13;101113.60;;;26.31;29.21
61488;BME280;47351;53.326;-6.298;2023-04-21T12:30:05;101108.05;;;26.72;28.71
61488;BME280;47351;53.326;-6.298;2023-04-21T12:32:56;101102.30;;;26.45;28.83
61488;BME280;47351;53.326;-6.298;2023-04-21T12:35:47;101101.04;;;25.33;29.74
61488;BME280;47351;53.326;-6.298;2023-04-21T12:38:42;101101.04;;;25.05;30.62
61488;BME280;47351;53.326;-6.298;2023-04-21T12:41:33;101093.81;;;25.26;30.49
61488;BME280;47351;53.326;-6.298;2023-04-21T12:44:23;101092.43;;;25.30;29.98
61488;BME280;47351;53.326;-6.298;2023-04-21T12:47:15;101083.44;;;25.11;30.22
61488;BME280;47351;53.326;-6.298;2023-04-21T12:50:06;101077.88;;;24.75;30.86
61488;BME280;47351;53.326;-6.298;2023-04-21T12:52:58;101073.31;;;23.86;31.94
61488;BME280;47351;53.326;-6.298;2023-04-21T12:55:49;101066.66;;;23.70;32.27
61488;BME280;47351;53.326;-6.298;2023-04-21T12:58:53;101061.04;;;24.20;31.89
61488;BME280;47351;53.326;-6.298;2023-04-21T13:01:44;101051.86;;;24.31;31.43
61488;BME280;47351;53.326;-6.298;2023-04-21T13:04:34;101043.42;;;24.61;31.35
61488;BME280;47351;53.326;-6.298;2023-04-21T13:07:27;101042.63;;;24.29;31.70
61488;BME280;47351;53.326;-6.298;2023-04-21T13:10:20;101039.55;;;24.55;32.07
61488;BME280;47351;53.326;-6.298;2023-04-21T13:13:11;101042.23;;;25.77;31.05
61488;BME280;47351;53.326;-6.298;2023-04-21T13:16:01;101028.81;;;27.09;30.05
61488;BME280;47351;53.326;-6.298;2023-04-21T13:18:52;101019.50;;;28.04;28.54
61488;BME280;47351;53.326;-6.298;2023-04-21T13:21:43;101015.42;;;28.55;27.50
61488;BME280;47351;53.326;-6.298;2023-04-21T13:24:33;101014.77;;;28.82;26.88
61488;BME280;47351;53.326;-6.298;2023-04-21T13:27:24;101014.27;;;29.01;26.56
61488;BME280;47351;53.326;-6.298;2023-04-21T13:30:15;101013.30;;;29.14;26.49
61488;BME280;47351;53.326;-6.298;2023-04-21T13:33:06;101008.05;;;29.23;26.27
61488;BME280;47351;53.326;-6.298;2023-04-21T13:35:57;101002.35;;;28.13;26.63
61488;BME280;47351;53.326;-6.298;2023-04-21T13:38:48;100997.50;;;27.50;27.27
61488;BME280;47351;53.326;-6.298;2023-04-21T13:41:41;100989.35;;;27.66;27.05
61488;BME280;47351;53.326;-6.298;2023-04-21T13:44:32;100979.79;;;27.70;27.23
61488;BME280;47351;53.326;-6.298;2023-04-21T13:47:23;100976.37;;;27.60;27.08
61488;BME280;47351;53.326;-6.298;2023-04-21T13:50:14;100975.98;;;27.02;27.96
61488;BME280;47351;53.326;-6.298;2023-04-21T13:53:05;100978.17;;;25.63;29.65
61488;BME280;47351;53.326;-6.298;2023-04-21T13:55:55;100968.45;;;24.84;30.62
61488;BME280;47351;53.326;-6.298;2023-04-21T13:58:47;100965.08;;;24.47;31.42
61488;BME280;47351;53.326;-6.298;2023-04-21T14:01:37;100954.26;;;23.48;32.40
61488;BME280;47351;53.326;-6.298;2023-04-21T14:04:30;100954.06;;;22.40;33.58
61488;BME280;47351;53.326;-6.298;2023-04-21T14:07:21;100949.34;;;21.88;34.62
61488;BME280;47351;53.326;-6.298;2023-04-21T14:10:14;100936.42;;;22.20;34.95
61488;BME280;47351;53.326;-6.298;2023-04-21T14:13:05;100922.06;;;22.97;34.16
61488;BME280;47351;53.326;-6.298;2023-04-21T14:15:55;100916.26;;;23.49;33.42
61488;BME280;47351;53.326;-6.298;2023-04-21T14:18:46;100908.73;;;24.00;32.88
61488;BME280;47351;53.326;-6.298;2023-04-21T14:21:36;100911.22;;;24.38;32.48
61488;BME280;47351;53.326;-6.298;2023-04-21T14:24:27;100911.71;;;24.22;31.91
61488;BME280;47351;53.326;-6.298;2023-04-21T14:27:20;100912.12;;;22.79;33.27
61488;BME280;47351;53.326;-6.298;2023-04-21T14:30:11;100914.02;;;21.33;35.05
61488;BME280;47351;53.326;-6.298;2023-04-21T14:33:02;100921.35;;;20.26;36.78
61488;BME280;47351;53.326;-6.298;2023-04-21T14:35:53;100921.98;;;19.43;38.31
61488;BME280;47351;53.326;-6.298;2023-04-21T14:38:44;100923.38;;;18.70;39.79
61488;BME280;47351;53.326;-6.298;2023-04-21T14:41:35;100929.55;;;18.05;41.03
61488;BME280;47351;53.326;-6.298;2023-04-21T14:44:26;100923.67;;;17.58;42.09
61488;BME280;47351;53.326;-6.298;2023-04-21T14:47:16;100922.59;;;17.18;43.21
61488;BME280;47351;53.326;-6.298;2023-04-21T14:50:08;100920.49;;;16.78;44.29
61488;BME280;47351;53.326;-6.298;2023-04-21T14:52:58;100923.91;;;16.51;45.12
61488;BME280;47351;53.326;-6.298;2023-04-21T14:55:49;100919.96;;;16.24;46.14
61488;BME280;47351;53.326;-6.298;2023-04-21T14:58:42;100918.81;;;15.99;46.90
61488;BME280;47351;53.326;-6.298;2023-04-21T15:01:33;100918.97;;;15.73;47.86
61488;BME280;47351;53.326;-6.298;2023-04-21T15:04:24;100913.65;;;15.45;48.82
61488;BME280;47351;53.326;-6.298;2023-04-21T15:07:15;100913.48;;;15.22;50.25
61488;BME280;47351;53.326;-6.298;2023-04-21T15:10:12;100903.81;;;14.99;50.98
61488;BME280;47351;53.326;-6.298;2023-04-21T15:13:03;100912.53;;;14.80;51.68
61488;BME280;47351;53.326;-6.298;2023-04-21T15:15:54;100912.30;;;14.69;52.53
61488;BME280;47351;53.326;-6.298;2023-04-21T15:18:45;100910.55;;;14.76;52.76
61488;BME280;47351;53.326;-6.298;2023-04-21T15:21:35;100913.55;;;14.89;52.80
61488;BME280;47351;53.326;-6.298;2023-04-21T15:24:26;100914.77;;;14.95;53.06
61488;BME280;47351;53.326;-6.298;2023-04-21T15:27:17;100914.90;;;14.95;53.37
61488;BME280;47351;53.326;-6.298;2023-04-21T15:30:08;100911.27;;;15.08;53.41
61488;BME280;47351;53.326;-6.298;2023-04-21T15:32:59;100904.82;;;15.25;53.32
61488;BME280;47351;53.326;-6.298;2023-04-21T15:35:50;100899.14;;;15.55;52.85
61488;BME280;47351;53.326;-6.298;2023-04-21T15:38:41;100896.77;;;15.70;52.81
61488;BME280;47351;53.326;-6.298;2023-04-21T15:41:53;100886.17;;;15.65;52.97
61488;BME280;47351;53.326;-6.298;2023-04-21T15:44:44;100890.61;;;15.60;53.24
61488;BME280;47351;53.326;-6.298;2023-04-21T15:47:35;100886.75;;;15.56;53.54
61488;BME280;47351;53.326;-6.298;2023-04-21T15:50:25;100882.45;;;15.54;53.72
61488;BME280;47351;53.326;-6.298;2023-04-21T15:53:18;100878.44;;;15.79;53.68
61488;BME280;47351;53.326;-6.298;2023-04-21T15:56:08;100877.73;;;16.05;53.61
61488;BME280;47351;53.326;-6.298;2023-04-21T15:59:00;100874.48;;;16.12;53.40
61488;BME280;47351;53.326;-6.298;2023-04-21T16:01:52;100866.96;;;16.16;53.31
61488;BME280;47351;53.326;-6.298;2023-04-21T16:04:44;100862.99;;;16.26;53.12
61488;BME280;47351;53.326;-6.298;2023-04-21T16:07:36;100856.80;;;16.37;52.97